Estación Meteorológica Peña el Pijo (Robertgarden) [ 01/30/23 14:28:19 CET ]

Fecha Hora Presion(HPa) Temp (°C) Humedad % Rocio (°C) Viento ( m/s) Direccion Lluvia 1Hora(mm) Lluvia 24H(mm) LLuvia Total(mm)
2010-Jul-22 01:01:12 1010.000 18.4 50 7.8         130.53
2010-Jul-22 02:01:14 1010.000 17.1 55 7.9         130.53
2010-Jul-22 03:03:17 1009.600 16.6 56 7.8         130.53
2010-Jul-22 04:01:12 1009.300 15.4 60 7.7         130.53
2010-Jul-22 05:01:17 1009.200 14.9 62 7.7         130.53
2010-Jul-22 06:01:13 1009.100 14.9 63 7.9         130.53
2010-Jul-22 07:01:18 1009.400 13.4 69 7.8         130.53
2010-Jul-22 08:01:16 1009.600 14.1 73 9.3         130.53
2010-Jul-22 09:01:16 1009.800 20.9 57 12.1         130.53
2010-Jul-22 10:01:16 1010.000 26.8 42 12.8         130.53
2010-Jul-22 11:01:12 1009.800 30.9 29 10.7         130.53
2010-Jul-22 12:01:13 1009.700 34.5 23 10.1         130.53
2010-Jul-22 13:01:14 1009.600 37.5 18 8.8 1.1 S     130.53
2010-Jul-22 14:01:12 1009.400 37.1 15 5.5         130.53
2010-Jul-22 15:01:14 1009.100 36.3 15 4.8 2.1 ESE     130.53
2010-Jul-22 16:01:12 1009.100 36.3 15 4.8 1.6 E     130.53
2010-Jul-22 17:01:12 1008.900 36.8 15 5.2         130.53
2010-Jul-22 18:01:11 1009.000 35.9 15 4.5         130.53
2010-Jul-22 19:01:13 1009.100 35.2 20 8.9 2.7 S     130.53
2010-Jul-22 20:01:14 1009.700 33.1 27 11.4         130.53
2010-Jul-22 21:01:11 1010.400 28.4 43 14.6         130.53
2010-Jul-22 22:01:13 1011.300 26.3 49 14.7         130.53
2010-Jul-22 23:01:14 1012.300 23.8 47 11.8         130.53

Temperatura Máxima:37°    Temperatura Mínima:13°
Presión Máxima:1012.300 Hpa    Presión Mínima:1008.900 Hpa


Volver